Prairie City, Oregon
Current Conditions -  °F | °C
As of 2:55 PM on Tuesday 27 Jan 2015 (Local Time) from KGCD Reporting Station
Scattered Clouds Scattered Clouds  
Wind Chill: 48°   Ceiling: Unl
Heat Index: 48°   Visibility: 10mi
Dew Point: 36°   Wind: 0mph
Humidity: 63%   Direction: NA
Pressure: 30.05"   Gusts: NA
Location:  44.46°N, 118.71°W
Report Text: KGCD 272255Z AUTO 00000KT 10SM SCT110 09/02 A3005 RMK AO2 T00880022
Loading
Personal Weather Stations






























Interactive Weather Map New forecast layout! Learn more

10-Day Weather Forecast

Advertisements
Track Severe Weather on mobile